createdAt,value
2018-04-27T00:00:22.901Z,79.10
2018-04-27T00:02:55.713Z,79.20
2018-04-27T00:05:29.804Z,79.30
2018-04-27T00:08:02.605Z,79.30
2018-04-27T00:10:35.043Z,79.50
2018-04-27T00:13:07.655Z,79.50
2018-04-27T00:15:40.325Z,79.40
2018-04-27T00:18:12.976Z,79.40
2018-04-27T00:20:45.605Z,79.40
2018-04-27T00:23:18.153Z,79.50
2018-04-27T00:25:50.662Z,79.70
2018-04-27T00:28:23.270Z,79.90
2018-04-27T00:30:55.887Z,79.60
2018-04-27T00:33:28.592Z,79.50
2018-04-27T00:36:01.107Z,79.60
2018-04-27T00:38:34.745Z,79.50
2018-04-27T00:41:08.200Z,79.50
2018-04-27T00:43:41.163Z,79.50
2018-04-27T00:46:13.545Z,79.60
2018-04-27T00:48:46.033Z,79.70
2018-04-27T00:51:19.234Z,79.90
2018-04-27T00:53:51.913Z,79.90
2018-04-27T00:56:24.406Z,80.00
2018-04-27T00:58:56.809Z,80.00
2018-04-27T01:01:29.969Z,80.80
2018-04-27T01:04:02.862Z,80.00
2018-04-27T01:06:36.131Z,80.10
2018-04-27T01:09:08.805Z,80.00
2018-04-27T01:11:41.246Z,80.00
2018-04-27T01:14:13.925Z,80.10
2018-04-27T01:16:46.384Z,80.10
2018-04-27T01:19:18.895Z,80.10
2018-04-27T01:21:51.406Z,80.10
2018-04-27T01:24:24.089Z,80.10
2018-04-27T01:26:56.615Z,80.00
2018-04-27T01:29:31.007Z,80.00
2018-04-27T01:32:04.789Z,79.90
2018-04-27T01:34:37.726Z,79.80
2018-04-27T01:37:10.253Z,79.90
2018-04-27T01:39:42.865Z,79.90
2018-04-27T01:42:15.482Z,79.90
2018-04-27T01:44:48.851Z,80.00
2018-04-27T01:47:21.667Z,79.90
2018-04-27T01:49:54.810Z,80.00
2018-04-27T01:52:27.629Z,79.90
2018-04-27T01:55:01.051Z,80.00
2018-04-27T01:57:34.261Z,80.20
2018-04-27T02:00:06.953Z,80.20
2018-04-27T02:02:39.483Z,80.10
2018-04-27T02:05:11.860Z,80.80
2018-04-27T02:07:44.484Z,79.80
2018-04-27T02:10:17.035Z,79.80
2018-04-27T02:12:50.373Z,79.70
2018-04-27T02:15:23.943Z,79.70
2018-04-27T02:17:56.276Z,79.80
2018-04-27T02:20:29.539Z,80.10
2018-04-27T02:23:03.001Z,80.90
2018-04-27T02:25:36.651Z,80.20
2018-04-27T02:28:09.281Z,80.30
2018-04-27T02:30:41.874Z,80.40
2018-04-27T02:33:15.903Z,80.30
2018-04-27T02:35:49.813Z,80.90
2018-04-27T02:38:22.725Z,80.20
2018-04-27T02:40:55.527Z,80.50
2018-04-27T02:43:28.952Z,80.40
2018-04-27T02:46:02.546Z,80.40
2018-04-27T02:48:37.269Z,80.60
2018-04-27T02:51:10.881Z,80.30
2018-04-27T02:53:43.905Z,80.40
2018-04-27T02:56:16.551Z,80.60
2018-04-27T02:58:49.253Z,81.20
2018-04-27T03:01:21.967Z,80.70
2018-04-27T03:03:54.527Z,80.70
2018-04-27T03:06:27.123Z,80.60
2018-04-27T03:08:59.578Z,80.30
2018-04-27T03:11:32.225Z,80.40
2018-04-27T03:14:04.730Z,80.40
2018-04-27T03:16:38.879Z,80.50
2018-04-27T03:19:13.093Z,80.40
2018-04-27T03:21:52.994Z,80.40
2018-04-27T03:24:25.559Z,80.60
2018-04-27T03:26:57.863Z,80.60
2018-04-27T03:29:31.124Z,80.20
2018-04-27T03:32:03.783Z,80.10
2018-04-27T03:34:36.326Z,80.10
2018-04-27T03:37:08.642Z,80.10
2018-04-27T03:39:41.210Z,80.10
2018-04-27T03:42:13.651Z,80.00
2018-04-27T03:44:46.361Z,79.90
2018-04-27T03:47:18.838Z,80.00
2018-04-27T03:49:58.259Z,80.00
2018-04-27T03:52:31.053Z,79.90
2018-04-27T03:55:04.493Z,79.70
2018-04-27T03:57:37.195Z,79.70
2018-04-27T04:00:28.519Z,79.70
2018-04-27T04:03:19.929Z,79.80
2018-04-27T04:05:53.390Z,79.90
2018-04-27T04:08:26.832Z,79.80
2018-04-27T04:11:00.217Z,79.70
2018-04-27T04:13:33.921Z,80.10
2018-04-27T04:16:06.860Z,79.80
2018-04-27T04:18:39.434Z,79.80
2018-04-27T04:21:11.839Z,79.80
2018-04-27T04:23:45.076Z,79.60
2018-04-27T04:26:17.802Z,79.60
2018-04-27T04:28:51.126Z,79.40
2018-04-27T04:31:23.507Z,79.50
2018-04-27T04:33:56.089Z,79.50
2018-04-27T04:36:28.594Z,79.40
2018-04-27T04:39:02.247Z,79.50
2018-04-27T04:41:35.374Z,79.50
2018-04-27T04:44:08.602Z,79.20
2018-04-27T04:46:42.039Z,79.40
2018-04-27T04:49:15.279Z,79.30
2018-04-27T04:51:48.169Z,79.30
2018-04-27T04:54:20.551Z,79.10
2018-04-27T04:56:53.003Z,79.20
2018-04-27T04:59:25.741Z,79.10
2018-04-27T05:01:58.933Z,79.00
2018-04-27T05:04:39.374Z,78.90
2018-04-27T05:07:12.109Z,78.90
2018-04-27T05:09:45.415Z,78.70
2018-04-27T05:12:18.961Z,78.70
2018-04-27T05:14:51.626Z,78.60
2018-04-27T05:17:24.963Z,78.80
2018-04-27T05:19:57.463Z,78.70
2018-04-27T05:22:32.051Z,78.60
2018-04-27T05:25:04.610Z,78.50
2018-04-27T05:27:37.255Z,77.80
2018-04-27T05:30:09.790Z,76.20
2018-04-27T05:32:42.774Z,75.40
2018-04-27T05:35:15.971Z,72.60
2018-04-27T05:37:48.991Z,70.70
2018-04-27T05:40:21.517Z,68.50
2018-04-27T05:42:54.885Z,64.50
2018-04-27T05:45:27.595Z,64.40
2018-04-27T05:48:00.251Z,62.90
2018-04-27T05:50:33.005Z,60.10
2018-04-27T05:53:06.322Z,57.00
2018-04-27T05:55:38.880Z,56.80
2018-04-27T05:58:12.242Z,55.10
2018-04-27T06:00:44.693Z,53.80
2018-04-27T06:03:17.967Z,52.30
2018-04-27T06:05:50.568Z,52.20
2018-04-27T06:08:23.099Z,51.70
2018-04-27T06:10:55.698Z,50.80
2018-04-27T06:13:28.310Z,50.50
2018-04-27T06:16:00.876Z,49.50
2018-04-27T06:18:33.360Z,48.60
2018-04-27T06:21:05.965Z,47.90
2018-04-27T06:23:38.480Z,47.30
2018-04-27T06:26:10.934Z,47.10
2018-04-27T06:28:48.462Z,47.40
2018-04-27T06:31:21.308Z,47.70
2018-04-27T06:33:53.786Z,48.00
2018-04-27T06:36:27.241Z,48.00
2018-04-27T06:39:00.689Z,47.70
2018-04-27T06:41:33.100Z,47.60
2018-04-27T06:44:06.511Z,48.80
2018-04-27T06:46:39.142Z,47.20
2018-04-27T06:49:11.704Z,47.30
2018-04-27T06:51:45.831Z,45.90
2018-04-27T06:54:18.659Z,45.80
2018-04-27T06:56:51.258Z,45.00
2018-04-27T06:59:23.896Z,44.00
2018-04-27T07:01:57.236Z,42.70
2018-04-27T07:04:29.948Z,43.40
2018-04-27T07:07:02.363Z,43.30
2018-04-27T07:09:36.485Z,43.20
2018-04-27T07:12:09.369Z,43.20
2018-04-27T07:14:41.752Z,42.60
2018-04-27T07:17:15.741Z,43.50
2018-04-27T07:19:48.342Z,44.20
2018-04-27T07:22:20.898Z,44.00
2018-04-27T07:24:54.200Z,43.80
2018-04-27T07:27:26.923Z,43.80
2018-04-27T07:29:59.391Z,42.50
2018-04-27T07:32:33.484Z,43.40
2018-04-27T07:35:06.212Z,43.30
2018-04-27T07:37:39.444Z,42.80
2018-04-27T07:40:12.068Z,42.80
2018-04-27T07:42:45.362Z,44.20
2018-04-27T07:45:18.023Z,44.20
2018-04-27T07:47:51.129Z,44.20
2018-04-27T07:50:24.116Z,44.90
2018-04-27T07:52:57.410Z,45.30
2018-04-27T07:55:30.841Z,45.30
2018-04-27T07:58:03.246Z,45.80
2018-04-27T08:00:35.811Z,45.50
2018-04-27T08:03:09.939Z,46.50
2018-04-27T08:05:42.769Z,46.50
2018-04-27T08:08:16.732Z,47.10
2018-04-27T08:10:50.253Z,46.00
2018-04-27T08:13:23.180Z,46.10
2018-04-27T08:15:55.778Z,46.40
2018-04-27T08:18:28.974Z,45.30
2018-04-27T08:21:02.501Z,44.80
2018-04-27T08:23:35.326Z,44.80
2018-04-27T08:26:10.809Z,45.80
2018-04-27T08:28:43.538Z,43.90
2018-04-27T08:31:16.842Z,44.70
2018-04-27T08:33:49.263Z,44.00
2018-04-27T08:36:22.653Z,44.40
2018-04-27T08:38:55.003Z,44.60
2018-04-27T08:41:28.344Z,43.20
2018-04-27T08:44:01.134Z,43.20
2018-04-27T08:46:33.699Z,41.40
2018-04-27T08:49:06.992Z,42.70
2018-04-27T08:51:39.602Z,43.30
2018-04-27T08:54:13.691Z,44.20
2018-04-27T08:56:46.599Z,44.20
2018-04-27T08:59:19.307Z,43.90
2018-04-27T09:01:52.052Z,42.80
2018-04-27T09:04:24.440Z,41.70
2018-04-27T09:06:57.875Z,41.90
2018-04-27T09:09:30.577Z,41.90
2018-04-27T09:12:03.091Z,41.70
2018-04-27T09:14:35.589Z,41.20
2018-04-27T09:17:08.227Z,40.40
2018-04-27T09:19:41.485Z,40.30
2018-04-27T09:22:14.243Z,40.30
2018-04-27T09:24:47.701Z,40.10
2018-04-27T09:27:20.521Z,40.00
2018-04-27T09:29:52.972Z,40.20
2018-04-27T09:32:25.578Z,39.90
2018-04-27T09:34:58.919Z,39.60
2018-04-27T09:37:31.413Z,39.90
2018-04-27T09:40:03.806Z,39.60
2018-04-27T09:42:36.225Z,39.40
2018-04-27T09:45:09.421Z,40.90
2018-04-27T09:47:43.016Z,38.20
2018-04-27T09:50:15.590Z,38.20
2018-04-27T09:52:48.078Z,38.00
2018-04-27T09:55:20.642Z,37.90
2018-04-27T09:57:53.251Z,39.80
2018-04-27T10:00:26.530Z,39.50
2018-04-27T10:02:59.312Z,39.50
2018-04-27T10:05:31.714Z,39.20
2018-04-27T10:08:04.999Z,40.00
2018-04-27T10:10:37.693Z,40.00
2018-04-27T10:13:10.109Z,39.90
2018-04-27T10:15:42.613Z,41.30
2018-04-27T10:18:15.108Z,40.70
2018-04-27T10:20:48.425Z,39.60
2018-04-27T10:23:20.858Z,40.10
2018-04-27T10:25:53.389Z,41.20
2018-04-27T10:28:25.888Z,41.40
2018-04-27T10:30:58.387Z,41.00
2018-04-27T10:33:30.815Z,40.30
2018-04-27T10:36:04.077Z,40.80
2018-04-27T10:38:36.996Z,40.80
2018-04-27T10:41:09.655Z,42.40
2018-04-27T10:43:42.225Z,40.60
2018-04-27T10:46:14.796Z,40.50
2018-04-27T10:48:48.069Z,40.90
2018-04-27T10:51:20.829Z,40.80
2018-04-27T10:53:53.372Z,41.70
2018-04-27T10:56:26.203Z,41.30
2018-04-27T10:58:59.165Z,40.40
2018-04-27T11:01:31.914Z,40.40
2018-04-27T11:04:05.434Z,40.60
2018-04-27T11:06:38.878Z,41.40
2018-04-27T11:09:12.133Z,41.50
2018-04-27T11:11:44.757Z,41.40
2018-04-27T11:14:17.241Z,41.40
2018-04-27T11:16:50.622Z,42.50
2018-04-27T11:19:23.180Z,42.50
2018-04-27T11:21:55.671Z,43.30
2018-04-27T11:24:28.352Z,41.90
2018-04-27T11:27:00.932Z,42.80
2018-04-27T11:29:34.239Z,43.20
2018-04-27T11:32:07.172Z,43.20
2018-04-27T11:34:40.469Z,44.10
2018-04-27T11:37:13.184Z,44.10
2018-04-27T11:39:45.951Z,44.30
2018-04-27T11:42:18.290Z,44.30
2018-04-27T11:44:51.112Z,45.00
2018-04-27T11:47:25.162Z,45.30
2018-04-27T11:49:57.876Z,45.20
2018-04-27T11:52:31.253Z,45.20
2018-04-27T11:55:04.641Z,45.70
2018-04-27T11:57:37.847Z,47.10
2018-04-27T12:00:10.302Z,47.20
2018-04-27T12:02:42.789Z,46.30
2018-04-27T12:05:15.678Z,45.80
2018-04-27T12:07:48.970Z,46.40
2018-04-27T12:10:22.383Z,46.80
2018-04-27T12:12:55.908Z,46.20
2018-04-27T12:15:29.405Z,46.20
2018-04-27T12:18:02.822Z,46.30
2018-04-27T12:20:35.178Z,47.00
2018-04-27T12:23:08.401Z,47.30
2018-04-27T12:25:42.130Z,48.00
2018-04-27T12:28:15.446Z,47.40
2018-04-27T12:30:48.140Z,47.30
2018-04-27T12:33:20.458Z,47.30
2018-04-27T12:35:53.210Z,47.20
2018-04-27T12:38:26.522Z,47.90
2018-04-27T12:40:59.084Z,48.10
2018-04-27T12:43:32.248Z,47.40
2018-04-27T12:46:05.830Z,47.40
2018-04-27T12:48:38.397Z,47.40
2018-04-27T12:51:11.197Z,47.90
2018-04-27T12:53:43.647Z,46.80
2018-04-27T12:56:16.229Z,47.60
2018-04-27T12:58:48.678Z,47.30
2018-04-27T13:01:22.387Z,47.50
2018-04-27T13:03:55.632Z,47.20
2018-04-27T13:06:28.325Z,47.10
2018-04-27T13:09:00.676Z,47.30
2018-04-27T13:11:34.269Z,47.50
2018-04-27T13:14:06.777Z,47.60
2018-04-27T13:16:39.342Z,47.60
2018-04-27T13:19:11.741Z,47.60
2018-04-27T13:21:44.237Z,47.70
2018-04-27T13:24:17.486Z,47.70
2018-04-27T13:26:51.007Z,47.70
2018-04-27T13:29:23.709Z,47.10
2018-04-27T13:31:56.962Z,47.80
2018-04-27T13:34:29.882Z,47.70
2018-04-27T13:37:02.384Z,47.50
2018-04-27T13:39:34.935Z,47.80
2018-04-27T13:42:07.489Z,47.80
2018-04-27T13:44:40.762Z,48.10
2018-04-27T13:47:13.596Z,48.00
2018-04-27T13:49:46.038Z,48.60
2018-04-27T13:52:19.223Z,48.00
2018-04-27T13:54:52.094Z,48.00
2018-04-27T13:57:24.551Z,48.60
2018-04-27T13:59:56.989Z,48.00
2018-04-27T14:02:29.398Z,47.60
2018-04-27T14:05:01.863Z,47.50
2018-04-27T14:07:34.383Z,47.90
2018-04-27T14:10:07.149Z,47.30
2018-04-27T14:12:39.624Z,47.90
2018-04-27T14:15:13.142Z,48.10
2018-04-27T14:17:46.467Z,47.40
2018-04-27T14:20:19.249Z,47.40
2018-04-27T14:22:51.617Z,47.50
2018-04-27T14:25:24.147Z,47.50
2018-04-27T14:27:56.623Z,47.70
2018-04-27T14:30:29.198Z,47.60
2018-04-27T14:33:01.669Z,47.00
2018-04-27T14:35:35.079Z,47.00
2018-04-27T14:38:08.773Z,47.30
2018-04-27T14:40:41.297Z,47.50
2018-04-27T14:43:13.810Z,47.40
2018-04-27T14:45:47.125Z,47.40
2018-04-27T14:48:19.689Z,47.60
2018-04-27T14:50:53.132Z,47.70
2018-04-27T14:53:26.574Z,46.80
2018-04-27T14:56:00.009Z,47.20
2018-04-27T14:58:33.395Z,47.10
2018-04-27T15:01:06.317Z,47.10
2018-04-27T15:03:39.723Z,47.40
2018-04-27T15:06:12.141Z,47.30
2018-04-27T15:08:45.487Z,47.30
2018-04-27T15:11:18.075Z,47.20
2018-04-27T15:13:50.796Z,47.70
2018-04-27T15:16:24.906Z,47.90
2018-04-27T15:18:57.760Z,47.80
2018-04-27T15:21:30.520Z,47.70
2018-04-27T15:24:02.982Z,47.60
2018-04-27T15:26:35.491Z,47.60
2018-04-27T15:29:07.953Z,47.50
2018-04-27T15:31:40.486Z,47.50
2018-04-27T15:34:14.656Z,47.70
2018-04-27T15:36:47.370Z,47.80
2018-04-27T15:39:20.668Z,47.70
2018-04-27T15:41:53.236Z,48.20
2018-04-27T15:44:26.863Z,48.70
2018-04-27T15:46:59.379Z,48.10
2018-04-27T15:49:32.777Z,48.20
2018-04-27T15:52:05.665Z,48.20
2018-04-27T15:54:38.990Z,48.10
2018-04-27T15:57:12.386Z,48.30
2018-04-27T15:59:45.148Z,48.30
2018-04-27T16:02:18.397Z,48.40
2018-04-27T16:04:51.185Z,48.50
2018-04-27T16:07:24.343Z,48.70
2018-04-27T16:09:57.094Z,48.50
2018-04-27T16:12:29.546Z,48.70
2018-04-27T16:15:02.023Z,48.50
2018-04-27T16:17:34.617Z,48.80
2018-04-27T16:20:07.994Z,48.80
2018-04-27T16:22:40.496Z,48.90
2018-04-27T16:25:13.804Z,48.90
2018-04-27T16:27:46.660Z,48.80
2018-04-27T16:30:19.110Z,48.90
2018-04-27T16:32:52.539Z,49.00
2018-04-27T16:35:25.433Z,48.60
2018-04-27T16:37:58.088Z,49.00
2018-04-27T16:40:30.534Z,48.80
2018-04-27T16:43:06.540Z,48.80
2018-04-27T16:45:39.560Z,48.80
2018-04-27T16:48:12.073Z,49.00
2018-04-27T16:50:45.366Z,49.00
2018-04-27T16:53:18.496Z,49.00
2018-04-27T16:55:51.264Z,49.00
2018-04-27T16:58:24.649Z,49.20
2018-04-27T17:00:57.334Z,49.00
2018-04-27T17:03:29.810Z,49.90
2018-04-27T17:06:02.261Z,50.20
2018-04-27T17:08:34.768Z,50.70
2018-04-27T17:11:08.092Z,50.60
2018-04-27T17:13:41.427Z,51.00
2018-04-27T17:16:14.877Z,51.40
2018-04-27T17:18:47.539Z,51.30
2018-04-27T17:21:21.440Z,51.10
2018-04-27T17:23:55.668Z,51.40
2018-04-27T17:26:29.034Z,51.40
2018-04-27T17:29:01.630Z,51.60
2018-04-27T17:31:34.953Z,51.90
2018-04-27T17:34:07.450Z,52.20
2018-04-27T17:36:39.899Z,52.00
2018-04-27T17:39:14.075Z,52.50
2018-04-27T17:41:46.869Z,52.40
2018-04-27T17:44:19.839Z,52.60
2018-04-27T17:46:53.592Z,52.70
2018-04-27T17:49:26.363Z,52.90
2018-04-27T17:51:58.926Z,52.80
2018-04-27T17:54:32.243Z,52.80
2018-04-27T17:57:05.103Z,53.20
2018-04-27T17:59:38.200Z,54.00
2018-04-27T18:02:10.802Z,54.30
2018-04-27T18:04:43.246Z,54.30
2018-04-27T18:07:16.569Z,54.20
2018-04-27T18:09:50.070Z,55.10
2018-04-27T18:12:22.872Z,55.10
2018-04-27T18:14:56.032Z,56.40
2018-04-27T18:17:29.425Z,56.60
2018-04-27T18:20:02.049Z,56.70
2018-04-27T18:22:34.513Z,56.90
2018-04-27T18:25:07.863Z,56.30
2018-04-27T18:27:40.560Z,56.50
2018-04-27T18:30:13.880Z,56.50
2018-04-27T18:32:48.068Z,57.70
2018-04-27T18:35:20.653Z,57.70
2018-04-27T18:37:53.251Z,58.20
2018-04-27T18:40:27.511Z,58.40
2018-04-27T18:43:00.817Z,59.20
2018-04-27T18:45:33.689Z,59.10
2018-04-27T18:48:07.041Z,59.00
2018-04-27T18:50:40.373Z,59.60
2018-04-27T18:53:13.208Z,60.00
2018-04-27T18:55:45.663Z,60.30
2018-04-27T18:58:19.715Z,60.80
2018-04-27T19:00:52.591Z,60.80
2018-04-27T19:03:25.898Z,61.20
2018-04-27T19:06:03.236Z,61.70
2018-04-27T19:08:36.726Z,62.20
2018-04-27T19:11:09.559Z,62.20
2018-04-27T19:13:42.664Z,62.90
2018-04-27T19:16:15.373Z,62.80
2018-04-27T19:18:48.724Z,63.00
2018-04-27T19:21:21.195Z,63.20
2018-04-27T19:23:53.859Z,63.30
2018-04-27T19:26:26.543Z,63.80
2018-04-27T19:29:00.662Z,64.80
2018-04-27T19:31:33.389Z,64.70
2018-04-27T19:34:06.850Z,65.10
2018-04-27T19:36:40.188Z,65.80
2018-04-27T19:39:13.498Z,66.00
2018-04-27T19:41:46.343Z,65.90
2018-04-27T19:44:19.669Z,66.30
2018-04-27T19:46:52.978Z,66.60
2018-04-27T19:49:25.842Z,66.60
2018-04-27T19:51:58.253Z,66.70
2018-04-27T19:54:30.744Z,67.00
2018-04-27T19:57:03.286Z,67.50
2018-04-27T19:59:35.864Z,67.70
2018-04-27T20:02:09.260Z,67.90
2018-04-27T20:04:41.951Z,68.00
2018-04-27T20:07:14.447Z,67.60
2018-04-27T20:09:50.030Z,67.50
2018-04-27T20:12:23.365Z,67.80
2018-04-27T20:14:56.131Z,67.80
2018-04-27T20:17:36.537Z,68.20
2018-04-27T20:20:13.964Z,68.70
2018-04-27T20:22:47.602Z,68.60
2018-04-27T20:25:21.083Z,68.40
2018-04-27T20:27:53.817Z,68.10
2018-04-27T20:30:27.275Z,68.80
2018-04-27T20:33:00.453Z,68.80
2018-04-27T20:35:36.930Z,69.10
2018-04-27T20:38:18.764Z,69.10
2018-04-27T20:40:51.286Z,69.30
2018-04-27T20:43:25.764Z,69.60
2018-04-27T20:45:59.154Z,69.50
2018-04-27T20:48:31.630Z,69.50
2018-04-27T20:51:08.668Z,69.50
2018-04-27T20:53:59.474Z,69.50
2018-04-27T20:56:42.120Z,69.50
2018-04-27T20:59:14.997Z,69.40
2018-04-27T21:01:48.455Z,69.70
2018-04-27T21:04:21.750Z,69.90
2018-04-27T21:06:54.378Z,70.00
2018-04-27T21:09:26.870Z,69.90
2018-04-27T21:12:00.245Z,70.40
2018-04-27T21:14:32.697Z,69.70
2018-04-27T21:17:05.417Z,69.90
2018-04-27T21:19:38.758Z,70.00
2018-04-27T21:22:12.032Z,70.40
2018-04-27T21:24:44.713Z,70.40
2018-04-27T21:27:18.760Z,70.20
2018-04-27T21:29:52.368Z,70.50
2018-04-27T21:32:25.595Z,70.40
2018-04-27T21:34:58.389Z,70.60
2018-04-27T21:37:32.422Z,70.80
2018-04-27T21:40:05.404Z,70.80
2018-04-27T21:42:38.754Z,71.30
2018-04-27T21:45:12.478Z,71.30
2018-04-27T21:47:45.139Z,71.30
2018-04-27T21:50:18.461Z,71.60
2018-04-27T21:52:51.128Z,71.70
2018-04-27T21:55:24.460Z,71.70
2018-04-27T21:58:09.873Z,71.90
2018-04-27T22:00:44.036Z,72.10
2018-04-27T22:03:16.754Z,72.10
2018-04-27T22:09:05.504Z,72.10
2018-04-27T22:11:39.249Z,72.30
2018-04-27T22:14:14.457Z,72.70
2018-04-27T22:19:48.615Z,73.40
2018-04-27T22:22:22.240Z,73.60
2018-04-27T22:25:23.608Z,73.70
2018-04-27T22:27:58.466Z,73.70
2018-04-27T22:30:33.094Z,73.90
2018-04-27T22:36:23.190Z,74.50
2018-04-27T22:42:09.887Z,74.60
2018-04-27T22:44:47.248Z,74.80
2018-04-27T22:47:38.180Z,75.30
2018-04-27T22:50:10.763Z,75.30
2018-04-27T22:52:43.747Z,75.60
2018-04-27T22:55:16.693Z,75.70
2018-04-27T22:58:07.886Z,75.90
2018-04-27T23:00:43.146Z,76.00
2018-04-27T23:03:17.360Z,76.00
2018-04-27T23:05:52.318Z,76.30
2018-04-27T23:08:26.353Z,76.30
2018-04-27T23:11:01.962Z,76.30
2018-04-27T23:13:48.946Z,76.40
2018-04-27T23:16:22.681Z,76.50
2018-04-27T23:18:55.259Z,76.60
2018-04-27T23:24:33.155Z,76.80
2018-04-27T23:27:05.673Z,76.90
2018-04-27T23:29:39.128Z,77.00
2018-04-27T23:32:11.723Z,77.00
2018-04-27T23:34:44.261Z,77.10
2018-04-27T23:37:17.525Z,77.20
2018-04-27T23:39:50.993Z,77.30
2018-04-27T23:42:23.338Z,77.40
2018-04-27T23:44:55.878Z,77.50
2018-04-27T23:47:28.335Z,77.70
2018-04-27T23:50:01.705Z,77.90
2018-04-27T23:52:34.989Z,78.00
2018-04-27T23:55:08.271Z,78.20
2018-04-27T23:57:41.479Z,78.40
